Time;durP1;ratioP1;P1;durP2;ratioP2;P2;SDS_P1;SDS_P2;PMS_P1;PMS_P2;Temp;Humidity;BMP_temperature;BMP_pressure;BME280_temperature;BME280_humidity;BME280_pressure;Samples;Min_cycle;Max_cycle;Signal;HPM_P1;HPM_P2
2024/02/01 00:02:20;;;;;;;102.53;46.23;;;1.70;99.90;;;;;;4434731;28;659478;-70
2024/02/01 00:05:08;;;;;;;99.60;43.47;;;1.70;99.90;;;;;;4403773;28;659409;-71
2024/02/01 00:07:56;;;;;;;105.53;46.83;;;1.60;99.90;;;;;;4443314;28;657454;-70
2024/02/01 00:10:43;;;;;;;102.03;45.63;;;1.60;99.90;;;;;;4407775;28;658971;-70
2024/02/01 00:13:32;;;;;;;108.27;47.10;;;1.50;99.90;;;;;;4431639;28;658987;-71
2024/02/01 00:16:22;;;;;;;116.43;49.27;;;1.50;99.90;;;;;;4415142;28;659168;-70
2024/02/01 00:19:09;;;;;;;105.77;44.50;;;1.50;99.90;;;;;;4406935;28;659668;-70
2024/02/01 00:21:56;;;;;;;105.17;43.43;;;1.60;99.90;;;;;;4425956;28;659115;-71
2024/02/01 00:24:43;;;;;;;107.53;48.00;;;1.60;99.90;;;;;;4408392;28;659422;-70
2024/02/01 00:27:30;;;;;;;112.90;47.97;;;1.50;99.90;;;;;;4429022;28;658768;-70
2024/02/01 00:30:20;;;;;;;106.63;46.30;;;1.40;99.90;;;;;;4409023;28;658656;-70
2024/02/01 00:33:07;;;;;;;104.57;43.85;;;1.40;99.90;;;;;;4405868;28;659120;-70
2024/02/01 00:35:55;;;;;;;117.57;49.33;;;1.40;99.90;;;;;;4431759;28;660023;-70
2024/02/01 00:38:42;;;;;;;100.80;45.13;;;1.30;99.90;;;;;;4425808;28;658969;-71
2024/02/01 00:41:30;;;;;;;110.17;49.07;;;1.30;99.90;;;;;;4434987;28;658709;-71
2024/02/01 00:44:17;;;;;;;116.20;49.50;;;1.30;99.90;;;;;;4426572;28;658840;-71
2024/02/01 00:47:07;;;;;;;115.20;48.00;;;1.30;99.90;;;;;;4407951;28;659209;-70
2024/02/01 00:49:54;;;;;;;105.10;47.27;;;1.20;99.90;;;;;;4414758;28;658801;-70
2024/02/01 00:52:41;;;;;;;111.05;48.80;;;1.20;99.90;;;;;;4435205;28;658702;-70
2024/02/01 00:55:29;;;;;;;106.17;47.10;;;1.10;99.90;;;;;;4407042;28;658698;-71
2024/02/01 00:58:16;;;;;;;112.97;47.00;;;1.20;99.90;;;;;;4421773;28;658607;-70
2024/02/01 01:01:03;;;;;;;104.37;45.87;;;1.20;99.90;;;;;;4407491;28;658768;-70
2024/02/01 01:03:52;;;;;;;104.33;48.20;;;1.20;99.90;;;;;;4429317;28;659171;-70
2024/02/01 01:06:39;;;;;;;117.23;50.90;;;1.20;99.90;;;;;;4389593;28;660269;-70
2024/02/01 01:09:27;;;;;;;114.13;48.77;;;1.30;99.90;;;;;;4420268;28;658783;-70
2024/02/01 01:12:14;;;;;;;116.67;48.97;;;1.30;99.90;;;;;;4408560;28;659328;-70
2024/02/01 01:15:01;;;;;;;121.27;48.87;;;1.30;99.90;;;;;;4427498;28;658366;-70
2024/02/01 01:17:49;;;;;;;115.53;48.63;;;1.20;99.90;;;;;;4404411;28;658701;-70
2024/02/01 01:20:37;;;;;;;119.63;47.33;;;1.20;99.90;;;;;;4422569;28;658571;-70
2024/02/01 01:23:24;;;;;;;125.43;51.67;;;1.20;99.90;;;;;;4414117;28;659311;-69
2024/02/01 01:26:11;;;;;;;121.73;52.00;;;1.00;99.90;;;;;;4424945;28;658581;-70
2024/02/01 01:28:59;;;;;;;109.47;50.20;;;1.00;99.90;;;;;;4400090;28;658814;-70
2024/02/01 01:31:46;;;;;;;116.73;49.60;;;1.00;99.90;;;;;;4420059;28;658626;-70
2024/02/01 01:34:33;;;;;;;122.50;50.83;;;0.90;99.90;;;;;;4411295;28;658645;-70
2024/02/01 01:37:22;;;;;;;118.73;51.43;;;0.90;99.90;;;;;;4431613;28;658844;-70
2024/02/01 01:40:09;;;;;;;38.53;15.90;;;0.80;99.90;;;;;;4399676;28;658726;-70
2024/02/01 01:42:57;;;;;;;116.70;48.27;;;0.80;99.90;;;;;;4423894;28;658867;-71
2024/02/01 01:45:44;;;;;;;115.03;46.37;;;0.80;99.90;;;;;;4410371;28;659224;-71
2024/02/01 01:48:32;;;;;;;108.63;45.20;;;0.80;99.90;;;;;;4430314;28;658575;-70
2024/02/01 01:51:20;;;;;;;103.23;43.13;;;0.70;99.90;;;;;;4413703;28;659301;-70
2024/02/01 01:54:09;;;;;;;110.90;46.70;;;0.80;99.90;;;;;;4431766;28;658825;-71
2024/02/01 01:56:57;;;;;;;100.50;43.90;;;0.70;99.90;;;;;;4429840;28;659112;-70
2024/02/01 01:59:44;;;;;;;109.40;45.70;;;0.80;99.90;;;;;;4421672;28;658887;-70
2024/02/01 02:02:33;;;;;;;103.07;43.63;;;0.80;99.90;;;;;;4422152;28;658626;-70
2024/02/01 02:05:20;;;;;;;103.57;43.37;;;0.70;99.90;;;;;;4394753;28;659766;-71
2024/02/01 02:08:07;;;;;;;94.67;41.50;;;0.70;99.90;;;;;;4423665;28;659569;-70
2024/02/01 02:10:56;;;;;;;86.70;39.80;;;0.80;99.90;;;;;;4436921;28;658574;-70
2024/02/01 02:13:47;;;;;;;63.30;27.70;;;0.80;99.90;;;;;;4406554;28;657346;-70
2024/02/01 02:16:37;;;;;;;96.07;42.73;;;0.80;99.90;;;;;;4413906;28;658292;-70
2024/02/01 02:19:25;;;;;;;97.97;42.60;;;0.90;99.90;;;;;;4405403;28;658112;-70
2024/02/01 02:22:14;;;;;;;101.73;42.87;;;0.90;99.90;;;;;;4410259;28;657764;-71
2024/02/01 02:25:05;;;;;;;95.23;40.67;;;0.80;99.90;;;;;;4422371;28;658484;-71
2024/02/01 02:27:52;;;;;;;81.67;37.30;;;0.70;99.90;;;;;;4395726;28;657694;-70
2024/02/01 02:30:40;;;;;;;79.63;36.10;;;0.80;99.90;;;;;;4433252;28;658045;-70
2024/02/01 02:33:27;;;;;;;79.30;36.77;;;0.90;99.90;;;;;;4430738;28;658135;-71
2024/02/01 02:36:15;;;;;;;93.47;40.17;;;0.90;99.90;;;;;;4437584;28;658189;-70
2024/02/01 02:39:03;;;;;;;81.63;34.20;;;0.90;99.90;;;;;;4434386;28;658787;-70
2024/02/01 02:41:50;;;;;;;79.23;35.50;;;0.90;99.90;;;;;;4409246;28;659549;-70
2024/02/01 02:44:37;;;;;;;75.00;35.43;;;0.90;99.90;;;;;;4417210;28;657971;-71
2024/02/01 02:47:25;;;;;;;81.30;34.17;;;0.90;99.90;;;;;;4439082;28;657570;-71
2024/02/01 02:50:12;;;;;;;73.43;34.10;;;0.80;99.90;;;;;;4432421;28;657210;-71
2024/02/01 02:52:59;;;;;;;74.17;33.47;;;0.80;99.90;;;;;;4408491;28;658387;-70
2024/02/01 02:55:47;;;;;;;39.60;17.90;;;0.80;99.90;;;;;;4432664;28;657754;-70
2024/02/01 02:58:36;;;;;;;39.43;13.50;;;0.90;99.90;;;;;;4397045;28;658785;-70
2024/02/01 03:01:23;;;;;;;35.50;16.57;;;0.90;99.90;;;;;;4396651;28;657418;-71
2024/02/01 03:04:10;;;;;;;58.87;25.30;;;0.90;99.90;;;;;;4431619;28;658577;-70
2024/02/01 03:06:57;;;;;;;77.83;31.97;;;1.00;99.90;;;;;;4412919;28;657457;-70
2024/02/01 03:09:45;;;;;;;72.70;32.93;;;1.00;99.90;;;;;;4438977;28;658183;-70
2024/02/01 03:12:33;;;;;;;71.13;30.07;;;1.00;99.90;;;;;;4440651;28;657286;-71
2024/02/01 03:15:20;;;;;;;37.03;14.30;;;1.00;99.90;;;;;;4411867;28;659260;-71
2024/02/01 03:18:10;;;;;;;73.70;33.60;;;1.10;99.90;;;;;;4411978;28;657367;-71
2024/02/01 03:20:57;;;;;;;78.77;34.67;;;1.20;99.90;;;;;;4427735;28;658167;-70
2024/02/01 03:23:45;;;;;;;86.87;35.40;;;1.20;99.90;;;;;;4435874;28;658328;-70
2024/02/01 03:26:35;;;;;;;75.35;33.67;;;1.20;99.90;;;;;;4416034;28;657805;-70
2024/02/01 03:29:24;;;;;;;65.97;27.37;;;1.30;99.90;;;;;;4425138;28;657981;-70
2024/02/01 03:32:12;;;;;;;65.60;28.80;;;1.30;99.90;;;;;;4433626;28;657399;-71
2024/02/01 03:34:59;;;;;;;62.17;28.53;;;1.40;99.90;;;;;;4407973;28;657991;-70
2024/02/01 03:37:46;;;;;;;55.43;26.10;;;1.50;99.90;;;;;;4431016;28;657446;-70
2024/02/01 03:40:38;;;;;;;54.23;24.73;;;1.50;99.90;;;;;;4417292;28;657818;-70
2024/02/01 03:43:27;;;;;;;37.27;18.07;;;1.70;99.90;;;;;;4408180;28;657814;-70
2024/02/01 03:46:16;;;;;;;35.50;14.83;;;1.70;99.90;;;;;;4411262;28;658662;-71
2024/02/01 03:49:04;;;;;;;56.90;28.00;;;1.70;99.90;;;;;;4405686;28;658399;-70
2024/02/01 03:51:52;;;;;;;48.58;21.63;;;1.80;99.90;;;;;;4436726;28;657790;-70
2024/02/01 03:54:39;;;;;;;50.10;22.50;;;1.80;99.90;;;;;;4410750;28;657613;-70
2024/02/01 03:57:26;;;;;;;60.27;23.83;;;1.80;99.90;;;;;;4430689;28;657242;-70
2024/02/01 04:00:25;;;;;;;43.77;22.70;;;1.70;99.90;;;;;;4413022;28;657586;-70
2024/02/01 04:03:15;;;;;;;47.60;22.00;;;1.70;99.90;;;;;;4389702;28;657829;-71
2024/02/01 04:06:02;;;;;;;48.43;22.43;;;1.70;99.90;;;;;;4428992;28;658186;-70
2024/02/01 04:08:50;;;;;;;51.37;21.93;;;1.70;99.90;;;;;;4433946;28;658061;-70
2024/02/01 04:11:37;;;;;;;52.03;23.73;;;1.70;99.90;;;;;;4430773;28;657938;-70
2024/02/01 04:14:24;;;;;;;49.07;24.17;;;1.70;99.90;;;;;;4414884;28;657374;-70
2024/02/01 04:17:11;;;;;;;20.73;8.93;;;1.80;99.90;;;;;;4325285;28;656935;-71
2024/02/01 04:20:00;;;;;;;40.40;20.03;;;1.90;99.90;;;;;;4311340;28;656779;-71
2024/02/01 04:22:49;;;;;;;40.17;18.75;;;2.00;99.90;;;;;;4314314;28;657709;-71
2024/02/01 04:25:37;;;;;;;38.23;17.40;;;2.10;99.90;;;;;;4372798;28;657337;-70
2024/02/01 04:28:24;;;;;;;41.47;17.10;;;2.10;99.90;;;;;;4414514;28;658693;-71
2024/02/01 04:31:11;;;;;;;19.43;8.80;;;2.20;99.90;;;;;;4433281;28;658534;-70
2024/02/01 04:34:00;;;;;;;34.97;15.17;;;2.30;99.90;;;;;;4406840;28;656919;-70
2024/02/01 04:36:49;;;;;;;29.30;15.43;;;2.40;99.90;;;;;;4431137;28;658036;-70
2024/02/01 04:39:36;;;;;;;32.40;13.97;;;2.30;99.90;;;;;;4428885;28;657642;-70
2024/02/01 04:42:23;;;;;;;32.23;15.63;;;2.50;99.90;;;;;;4410414;28;657563;-70
2024/02/01 04:45:11;;;;;;;31.33;14.40;;;2.50;99.90;;;;;;4430471;28;658212;-70
2024/02/01 04:47:58;;;;;;;24.43;12.37;;;2.50;99.90;;;;;;4417651;28;657308;-71
2024/02/01 04:50:45;;;;;;;25.40;11.30;;;2.60;99.90;;;;;;4434314;28;657744;-70
2024/02/01 04:53:34;;;;;;;25.30;11.70;;;2.70;99.90;;;;;;4409707;28;658206;-71
2024/02/01 04:56:21;;;;;;;21.40;10.87;;;2.70;99.90;;;;;;4427111;28;657580;-70
2024/02/01 04:59:08;;;;;;;25.27;10.80;;;2.70;99.90;;;;;;4417175;28;658147;-70
2024/02/01 05:01:55;;;;;;;26.13;11.67;;;2.80;99.90;;;;;;4431389;28;658405;-70
2024/02/01 05:04:43;;;;;;;27.00;12.37;;;2.80;99.90;;;;;;4408822;28;657642;-71
2024/02/01 05:07:30;;;;;;;21.07;10.17;;;2.80;99.90;;;;;;4436460;28;657960;-70
2024/02/01 05:10:19;;;;;;;22.03;10.30;;;2.80;99.90;;;;;;4408697;28;657810;-70
2024/02/01 05:13:06;;;;;;;19.77;9.37;;;2.80;99.90;;;;;;4429630;28;657457;-70
2024/02/01 05:15:53;;;;;;;27.17;12.83;;;2.80;99.90;;;;;;4410166;28;656520;-70
2024/02/01 05:18:40;;;;;;;29.10;13.30;;;2.80;99.90;;;;;;4427645;28;658721;-70
2024/02/01 05:21:27;;;;;;;28.47;13.13;;;2.70;99.90;;;;;;4422652;28;657464;-70
2024/02/01 05:24:15;;;;;;;33.70;14.00;;;2.80;99.90;;;;;;4441932;28;658969;-70
2024/02/01 05:27:07;;;;;;;26.73;12.97;;;2.80;99.90;;;;;;4434560;28;658069;-70
2024/02/01 05:29:54;;;;;;;30.45;14.55;;;2.70;99.90;;;;;;4412858;28;658095;-70
2024/02/01 05:32:51;;;;;;;35.07;14.50;;;2.70;99.90;;;;;;4418000;28;657907;-70
2024/02/01 05:35:38;;;;;;;24.83;12.20;;;2.70;99.90;;;;;;4393305;28;657786;-70
2024/02/01 05:38:25;;;;;;;32.58;15.82;;;2.70;99.90;;;;;;4436467;28;659266;-70
2024/02/01 05:41:13;;;;;;;29.30;14.97;;;2.70;99.90;;;;;;4409427;28;658038;-71
2024/02/01 05:44:01;;;;;;;29.70;14.20;;;2.70;99.90;;;;;;4432486;28;657999;-70
2024/02/01 05:46:49;;;;;;;22.70;10.97;;;2.70;99.90;;;;;;4409359;28;657444;-70
2024/02/01 05:49:36;;;;;;;28.60;13.20;;;2.60;99.90;;;;;;4420212;28;658075;-70
2024/02/01 05:52:23;;;;;;;26.53;13.43;;;2.70;99.90;;;;;;4416589;28;658017;-70
2024/02/01 05:55:13;;;;;;;28.70;14.13;;;2.70;99.90;;;;;;4428143;28;658532;-70
2024/02/01 05:58:05;;;;;;;34.10;14.77;;;2.60;99.90;;;;;;4409385;28;657873;-71
2024/02/01 06:00:54;;;;;;;31.00;5.27;;;2.60;99.90;;;;;;4423177;28;657300;-70
2024/02/01 06:03:42;;;;;;;35.07;16.87;;;2.70;99.90;;;;;;4444876;28;656482;-70
2024/02/01 06:06:30;;;;;;;23.50;9.83;;;2.60;99.90;;;;;;4411271;28;658631;-70
2024/02/01 06:09:18;;;;;;;29.90;13.40;;;2.60;99.90;;;;;;4424245;28;656729;-70
2024/02/01 06:12:05;;;;;;;30.53;13.50;;;2.60;99.90;;;;;;4437643;28;658921;-70
2024/02/01 06:14:52;;;;;;;30.08;11.60;;;2.70;99.90;;;;;;4417577;28;659034;-70
2024/02/01 06:17:41;;;;;;;36.03;16.33;;;2.80;99.90;;;;;;4427636;28;658465;-70
2024/02/01 06:20:28;;;;;;;23.67;10.80;;;2.80;99.90;;;;;;4413566;28;658923;-71
2024/02/01 06:23:15;;;;;;;31.47;14.37;;;2.90;99.90;;;;;;4433440;28;658723;-70
2024/02/01 06:26:05;;;;;;;33.53;18.08;;;2.90;99.90;;;;;;4412189;28;658404;-71
2024/02/01 06:28:53;;;;;;;24.90;13.20;;;2.90;99.90;;;;;;4419834;28;657417;-70
2024/02/01 06:31:40;;;;;;;29.23;13.57;;;3.00;99.90;;;;;;4430935;28;657631;-70
2024/02/01 06:34:38;;;;;;;30.90;12.93;;;3.00;99.90;;;;;;4414475;28;658170;-70
2024/02/01 06:37:28;;;;;;;33.80;15.00;;;3.00;99.90;;;;;;4412075;28;659183;-70
2024/02/01 06:40:37;;;;;;;34.70;16.33;;;3.00;99.90;;;;;;4413970;28;658284;-70
2024/02/01 06:43:41;;;;;;;37.03;17.43;;;3.00;99.90;;;;;;4391898;28;658191;-70
2024/02/01 06:46:49;;;;;;;30.80;16.40;;;3.00;99.90;;;;;;4392575;28;657736;-70
2024/02/01 06:52:43;;;;;;;35.53;16.73;;;3.00;99.90;;;;;;4409530;28;657975;-70
2024/02/01 06:55:54;;;;;;;35.93;18.10;;;3.10;99.90;;;;;;4413973;28;659313;-70
2024/02/01 06:58:47;;;;;;;25.07;12.10;;;3.20;99.90;;;;;;4399964;28;657324;-70
2024/02/01 07:01:48;;;;;;;38.03;17.63;;;3.20;99.90;;;;;;4391972;28;657678;-71
2024/02/01 07:04:50;;;;;;;35.93;17.00;;;3.30;99.90;;;;;;4413720;28;658808;-70
2024/02/01 07:07:42;;;;;;;26.97;13.63;;;3.40;99.90;;;;;;4428842;28;658245;-71
2024/02/01 07:10:42;;;;;;;28.83;14.20;;;3.50;99.90;;;;;;4413337;28;658058;-70
2024/02/01 07:13:45;;;;;;;31.83;14.43;;;3.60;99.90;;;;;;4408634;28;657632;-71
2024/02/01 07:16:54;;;;;;;33.03;14.30;;;3.60;99.90;;;;;;4432087;28;658115;-71
2024/02/01 07:19:53;;;;;;;18.80;6.47;;;3.70;99.90;;;;;;4421165;28;657290;-70
2024/02/01 07:23:00;;;;;;;24.17;11.80;;;3.70;99.90;;;;;;4412114;28;656948;-70
2024/02/01 07:26:01;;;;;;;35.83;18.27;;;3.70;99.90;;;;;;4431002;28;657765;-70
2024/02/01 07:59:58;;;;;;;36.50;17.77;;;3.90;99.90;;;;;;4407724;28;658016;-71
2024/02/01 08:02:49;;;;;;;41.35;17.83;;;3.90;99.90;;;;;;4436636;28;658234;-70
2024/02/01 08:08:41;;;;;;;34.27;16.40;;;4.00;99.90;;;;;;4383599;28;658008;-71
2024/02/01 08:11:29;;;;;;;31.77;12.97;;;4.00;99.90;;;;;;4403017;28;657888;-71
2024/02/01 08:14:16;;;;;;;35.87;17.47;;;4.00;99.90;;;;;;4419713;28;657680;-71
2024/02/01 08:17:04;;;;;;;35.70;18.00;;;4.00;99.90;;;;;;4414164;28;657806;-71
2024/02/01 08:19:51;;;;;;;32.63;16.13;;;4.10;99.90;;;;;;4425999;28;658072;-70
2024/02/01 08:22:41;;;;;;;34.53;16.30;;;4.00;99.90;;;;;;4410139;28;658585;-71
2024/02/01 08:25:30;;;;;;;41.13;18.57;;;4.10;99.90;;;;;;4414074;28;657642;-71
2024/02/01 08:28:18;;;;;;;34.00;16.27;;;4.10;99.90;;;;;;4411025;28;657619;-71
2024/02/01 08:31:08;;;;;;;28.30;14.50;;;4.10;99.90;;;;;;4431577;28;657797;-71
2024/02/01 08:33:55;;;;;;;36.40;17.03;;;4.20;99.90;;;;;;4408193;28;657904;-70
2024/02/01 08:36:43;;;;;;;27.43;12.70;;;4.20;99.90;;;;;;4405907;28;657974;-70
2024/02/01 08:39:32;;;;;;;34.63;16.53;;;4.20;99.90;;;;;;4431563;28;658388;-71
2024/02/01 08:42:21;;;;;;;35.83;19.83;;;4.20;99.90;;;;;;4404351;28;658074;-71
2024/02/01 08:45:09;;;;;;;34.63;13.20;;;4.30;99.90;;;;;;4412850;28;657246;-71
2024/02/01 08:48:00;;;;;;;34.33;17.67;;;4.30;99.90;;;;;;4424808;28;657807;-71
2024/02/01 08:50:48;;;;;;;30.85;14.43;;;4.30;99.90;;;;;;4413750;28;657851;-71
2024/02/01 08:53:42;;;;;;;42.97;18.30;;;4.30;99.90;;;;;;4436409;28;658586;-71
2024/02/01 08:56:36;;;;;;;34.83;18.27;;;4.30;99.90;;;;;;4387192;28;657676;-71
2024/02/01 08:59:24;;;;;;;38.30;18.60;;;4.30;99.90;;;;;;4417827;28;658177;-71
2024/02/01 09:02:15;;;;;;;39.20;17.43;;;4.40;99.90;;;;;;4433264;28;657715;-70
2024/02/01 09:05:02;;;;;;;43.03;20.33;;;4.50;99.90;;;;;;4398019;28;658408;-70
2024/02/01 09:07:50;;;;;;;27.00;12.03;;;4.50;99.90;;;;;;4433765;28;657554;-70
2024/02/01 09:10:38;;;;;;;32.85;16.98;;;4.60;99.90;;;;;;4419908;28;657405;-70
2024/02/01 09:13:28;;;;;;;36.17;17.30;;;4.50;99.90;;;;;;4435237;28;657692;-71
2024/02/01 09:16:22;;;;;;;37.10;17.63;;;4.60;99.90;;;;;;4414962;28;658222;-70
2024/02/01 09:19:14;;;;;;;41.00;19.10;;;4.60;99.90;;;;;;4385817;28;658045;-71
2024/02/01 09:22:03;;;;;;;40.53;20.93;;;4.70;99.90;;;;;;4416093;28;658001;-71
2024/02/01 09:24:50;;;;;;;22.73;8.67;;;4.80;99.90;;;;;;4410380;28;657510;-71
2024/02/01 09:27:39;;;;;;;26.23;13.13;;;5.00;99.90;;;;;;4413306;28;656115;-71
2024/02/01 09:30:28;;;;;;;36.33;15.87;;;5.10;99.90;;;;;;4439737;28;657346;-71
2024/02/01 09:33:17;;;;;;;29.93;13.10;;;5.00;99.90;;;;;;4409767;28;657600;-71
2024/02/01 09:36:05;;;;;;;35.60;16.43;;;5.00;99.90;;;;;;4417330;28;658198;-70
2024/02/01 09:38:54;;;;;;;42.17;20.43;;;4.90;99.90;;;;;;4433520;28;657931;-70
2024/02/01 09:41:41;;;;;;;32.17;16.75;;;4.80;99.90;;;;;;4422907;28;658080;-70
2024/02/01 09:44:32;;;;;;;29.33;14.73;;;4.70;99.90;;;;;;4410161;28;657916;-70
2024/02/01 09:47:19;;;;;;;45.63;23.03;;;4.70;99.90;;;;;;4417254;28;657947;-71
2024/02/01 09:50:12;;;;;;;40.13;19.80;;;4.50;99.90;;;;;;4424908;28;657187;-70
2024/02/01 09:53:02;;;;;;;31.23;15.40;;;4.50;99.90;;;;;;4409676;28;658328;-70
2024/02/01 09:55:50;;;;;;;40.47;18.87;;;4.30;99.90;;;;;;4415015;28;657112;-70
2024/02/01 09:58:39;;;;;;;45.20;21.23;;;4.20;99.90;;;;;;4430088;28;658969;-70
2024/02/01 10:01:26;;;;;;;35.90;15.63;;;4.20;99.90;;;;;;4432852;28;657863;-70
2024/02/01 10:04:14;;;;;;;47.07;23.97;;;4.10;99.90;;;;;;4406002;28;657693;-70
2024/02/01 10:07:02;;;;;;;50.43;22.23;;;4.10;99.90;;;;;;4422808;28;658103;-70
2024/02/01 10:09:51;;;;;;;52.67;27.23;;;4.00;99.90;;;;;;4411068;28;657780;-70
2024/02/01 10:12:39;;;;;;;54.70;25.17;;;3.90;99.90;;;;;;4414223;28;657641;-71
2024/02/01 10:15:30;;;;;;;33.37;15.73;;;4.00;99.90;;;;;;4435738;28;658645;-70
2024/02/01 10:18:19;;;;;;;41.40;18.97;;;4.00;99.90;;;;;;4430507;28;657740;-70
2024/02/01 10:21:21;;;;;;;51.83;24.90;;;3.90;99.90;;;;;;4356362;28;658648;-71
2024/02/01 10:24:10;;;;;;;51.77;23.43;;;3.90;99.90;;;;;;4316253;28;658010;-71
2024/02/01 10:27:04;;;;;;;52.65;28.27;;;3.80;99.90;;;;;;4326597;28;658257;-71
2024/02/01 10:29:51;;;;;;;45.17;22.27;;;3.90;99.90;;;;;;4338023;28;657689;-71
2024/02/01 10:32:39;;;;;;;25.17;8.73;;;3.80;99.90;;;;;;4412403;28;658219;-70
2024/02/01 10:35:26;;;;;;;48.50;22.30;;;3.90;99.90;;;;;;4428564;28;657809;-70
2024/02/01 10:38:14;;;;;;;40.30;18.60;;;3.80;99.90;;;;;;4404978;28;657428;-70
2024/02/01 10:41:11;;;;;;;35.63;16.03;;;3.70;99.90;;;;;;4438062;28;658251;-70
2024/02/01 10:43:58;;;;;;;51.13;20.53;;;3.80;99.90;;;;;;4375128;28;657889;-70
2024/02/01 10:46:47;;;;;;;43.93;20.17;;;3.70;99.90;;;;;;4422975;28;657644;-70
2024/02/01 10:49:36;;;;;;;52.80;23.87;;;3.60;99.90;;;;;;4376631;28;658500;-70
2024/02/01 10:52:27;;;;;;;42.85;21.02;;;3.60;99.90;;;;;;4394996;28;657689;-70
2024/02/01 10:55:14;;;;;;;45.73;22.10;;;3.60;99.90;;;;;;4400057;28;657851;-70
2024/02/01 10:58:03;;;;;;;61.37;26.47;;;3.60;99.90;;;;;;4419757;28;657628;-70
2024/02/01 11:00:50;;;;;;;41.80;18.63;;;3.50;99.90;;;;;;4393252;28;658028;-70
2024/02/01 11:03:43;;;;;;;42.77;21.97;;;3.50;99.90;;;;;;4406008;28;658024;-70
2024/02/01 11:06:31;;;;;;;43.47;21.80;;;3.40;99.90;;;;;;4391905;28;657655;-70
2024/02/01 11:09:23;;;;;;;48.55;22.88;;;3.30;99.90;;;;;;4401206;28;657602;-70
2024/02/01 11:12:12;;;;;;;40.47;20.10;;;3.40;99.90;;;;;;4400522;28;658542;-70
2024/02/01 11:15:05;;;;;;;40.03;19.37;;;3.40;99.90;;;;;;4403178;28;658780;-70
2024/02/01 11:17:58;;;;;;;36.47;18.93;;;3.30;99.90;;;;;;4384329;28;657982;-70
2024/02/01 11:20:55;;;;;;;41.33;20.73;;;3.30;99.90;;;;;;4395082;28;658560;-70
2024/02/01 11:23:43;;;;;;;42.17;20.23;;;3.20;99.90;;;;;;4397672;28;658073;-70
2024/02/01 11:26:37;;;;;;;42.17;24.33;;;3.20;99.90;;;;;;4407214;28;657365;-70
2024/02/01 11:29:26;;;;;;;43.53;20.00;;;3.20;99.90;;;;;;4389551;28;657944;-70
2024/02/01 11:32:17;;;;;;;47.17;25.57;;;3.20;99.90;;;;;;4383150;28;657495;-70
2024/02/01 11:35:05;;;;;;;48.07;22.63;;;3.10;99.90;;;;;;4393214;28;658142;-70
2024/02/01 11:38:00;;;;;;;48.80;23.03;;;3.20;99.90;;;;;;4393337;28;657492;-70
2024/02/01 11:40:48;;;;;;;54.43;26.57;;;3.20;99.90;;;;;;4405546;28;658365;-70
2024/02/01 11:43:38;;;;;;;58.30;32.53;;;3.20;99.90;;;;;;4418990;28;657856;-69
2024/02/01 11:46:25;;;;;;;48.33;20.70;;;3.20;99.90;;;;;;4395350;28;657724;-70
2024/02/01 11:49:17;;;;;;;54.60;26.23;;;3.10;99.90;;;;;;4396342;28;657617;-70
2024/02/01 11:52:17;;;;;;;31.65;15.55;;;3.20;99.90;;;;;;4398345;28;658076;-70
2024/02/01 11:55:07;;;;;;;59.57;28.50;;;3.20;99.90;;;;;;4371746;28;659770;-70
2024/02/01 11:57:57;;;;;;;31.00;13.23;;;3.20;99.90;;;;;;4389450;28;658252;-70
2024/02/01 12:00:44;;;;;;;62.27;29.17;;;3.20;99.90;;;;;;4386695;28;658624;-70
2024/02/01 12:03:32;;;;;;;73.33;28.37;;;3.20;99.90;;;;;;4401448;28;657830;-70
2024/02/01 12:06:22;;;;;;;62.63;28.00;;;3.20;99.90;;;;;;4380943;28;658708;-70
2024/02/01 12:09:09;;;;;;;66.20;33.17;;;3.20;99.90;;;;;;4395194;28;657993;-70
2024/02/01 12:11:57;;;;;;;68.03;28.67;;;3.10;99.90;;;;;;4416757;28;658449;-70
2024/02/01 12:14:44;;;;;;;61.67;29.17;;;3.20;99.90;;;;;;4393165;28;658363;-70
2024/02/01 12:17:34;;;;;;;69.50;35.27;;;3.10;99.90;;;;;;4420509;28;657821;-70
2024/02/01 12:20:28;;;;;;;65.03;26.67;;;3.10;99.90;;;;;;4401727;28;657225;-70
2024/02/01 12:23:17;;;;;;;74.07;37.70;;;3.20;99.90;;;;;;4391501;28;657831;-72
2024/02/01 12:26:05;;;;;;;66.27;30.70;;;3.20;99.90;;;;;;4392732;28;658592;-70
2024/02/01 12:28:53;;;;;;;48.17;20.23;;;3.20;99.90;;;;;;4414375;28;657544;-70
2024/02/01 12:31:40;;;;;;;15.47;7.00;;;3.30;99.90;;;;;;4394341;28;658200;-71
2024/02/01 12:34:28;;;;;;;33.07;11.10;;;3.30;99.90;;;;;;4400183;28;656923;-70
2024/02/01 12:37:15;;;;;;;59.97;24.70;;;3.30;99.90;;;;;;4411994;28;658523;-70
2024/02/01 12:40:06;;;;;;;67.73;31.33;;;3.30;99.90;;;;;;4382605;28;657870;-70
2024/02/01 12:42:53;;;;;;;42.23;20.50;;;3.30;99.90;;;;;;4392593;28;658362;-70
2024/02/01 12:45:46;;;;;;;65.93;27.33;;;3.40;99.90;;;;;;4431120;28;659005;-70
2024/02/01 12:48:37;;;;;;;41.67;19.33;;;3.40;99.90;;;;;;4395300;28;657578;-71
2024/02/01 12:51:27;;;;;;;34.00;14.40;;;3.40;99.90;;;;;;4410173;28;657666;-71
2024/02/01 12:54:15;;;;;;;64.75;36.80;;;3.40;99.90;;;;;;4412117;28;657962;-71
2024/02/01 12:57:04;;;;;;;51.93;22.20;;;3.40;99.90;;;;;;4414963;28;657945;-70
2024/02/01 12:59:53;;;;;;;47.27;22.00;;;3.50;99.90;;;;;;4430192;28;658053;-70
2024/02/01 13:02:40;;;;;;;55.37;27.70;;;3.50;99.90;;;;;;4402800;28;657665;-71
2024/02/01 13:05:27;;;;;;;41.03;16.97;;;3.40;99.90;;;;;;4426317;28;657894;-71
2024/02/01 13:08:15;;;;;;;54.87;26.00;;;3.40;99.90;;;;;;4436491;28;657953;-70
2024/02/01 13:11:03;;;;;;;35.90;17.30;;;3.50;99.90;;;;;;4413076;28;657194;-70
2024/02/01 13:13:51;;;;;;;40.63;19.33;;;3.50;99.90;;;;;;4431746;28;658603;-71
2024/02/01 13:16:38;;;;;;;43.05;19.42;;;3.50;99.90;;;;;;4414094;28;658652;-71
2024/02/01 13:19:26;;;;;;;55.33;26.03;;;3.50;99.90;;;;;;4426812;28;657632;-71
2024/02/01 13:22:13;;;;;;;51.77;24.37;;;3.50;99.90;;;;;;4406690;28;657949;-71
2024/02/01 13:25:00;;;;;;;60.57;29.43;;;3.50;99.90;;;;;;4427529;28;658469;-70
2024/02/01 13:27:48;;;;;;;47.97;20.50;;;3.50;99.90;;;;;;4402552;28;657749;-71
2024/02/01 13:30:39;;;;;;;68.57;32.10;;;3.50;99.90;;;;;;4422711;28;657715;-71
2024/02/01 13:33:26;;;;;;;38.50;16.53;;;3.50;99.90;;;;;;4403503;28;657942;-71
2024/02/01 13:36:14;;;;;;;72.03;36.53;;;3.50;99.90;;;;;;4410897;28;657913;-73
2024/02/01 13:39:05;;;;;;;74.73;36.10;;;3.50;99.90;;;;;;4440392;28;657223;-70
2024/02/01 13:41:52;;;;;;;62.20;28.53;;;3.40;99.90;;;;;;4393818;28;658712;-71
2024/02/01 13:44:40;;;;;;;63.70;27.93;;;3.50;99.90;;;;;;4432353;28;658853;-71
2024/02/01 13:47:29;;;;;;;35.40;16.53;;;3.50;99.90;;;;;;4423447;28;657639;-71
2024/02/01 13:50:16;;;;;;;54.90;25.20;;;3.50;99.90;;;;;;4428859;28;657827;-71
2024/02/01 13:53:03;;;;;;;30.17;9.55;;;3.50;99.90;;;;;;4417570;28;657852;-71
2024/02/01 13:55:51;;;;;;;62.07;28.90;;;3.40;99.90;;;;;;4423525;28;656636;-72
2024/02/01 13:58:38;;;;;;;66.67;30.20;;;3.40;99.90;;;;;;4400049;28;658314;-71
2024/02/01 14:01:25;;;;;;;54.13;22.57;;;3.40;99.90;;;;;;4439102;28;657854;-72
2024/02/01 14:04:14;;;;;;;22.40;10.33;;;3.50;99.90;;;;;;4418538;28;657795;-71
2024/02/01 14:07:01;;;;;;;63.97;28.73;;;3.50;99.90;;;;;;4441254;28;656762;-71
2024/02/01 14:09:48;;;;;;;58.83;26.67;;;3.40;99.90;;;;;;4413375;28;657603;-71
2024/02/01 14:12:36;;;;;;;60.27;30.43;;;3.40;99.90;;;;;;4425233;28;657764;-71
2024/02/01 14:15:23;;;;;;;73.23;32.07;;;3.40;99.90;;;;;;4417971;28;658131;-71
2024/02/01 14:18:10;;;;;;;69.47;31.70;;;3.40;99.90;;;;;;4439481;28;659063;-72
2024/02/01 14:21:00;;;;;;;57.50;27.07;;;3.50;99.90;;;;;;4428149;28;657692;-71
2024/02/01 14:23:48;;;;;;;84.68;37.00;;;3.50;99.90;;;;;;4401574;28;657953;-72
2024/02/01 14:26:35;;;;;;;76.50;34.33;;;3.40;99.90;;;;;;4433234;28;659380;-71
2024/02/01 14:29:23;;;;;;;78.63;38.90;;;3.40;99.90;;;;;;4422487;28;657412;-71
2024/02/01 14:32:13;;;;;;;73.87;31.83;;;3.40;99.90;;;;;;4434467;28;658533;-71
2024/02/01 14:35:00;;;;;;;85.80;38.00;;;3.40;99.90;;;;;;4410485;28;658785;-71
2024/02/01 14:37:49;;;;;;;66.93;27.80;;;3.50;99.90;;;;;;4420156;28;657673;-71
2024/02/01 14:40:36;;;;;;;91.23;34.30;;;3.50;99.90;;;;;;4448517;28;657748;-71
2024/02/01 14:43:24;;;;;;;64.20;28.00;;;3.50;99.90;;;;;;4412139;28;657679;-71
2024/02/01 14:46:12;;;;;;;34.60;16.17;;;3.60;99.90;;;;;;4430223;28;657608;-71
2024/02/01 14:48:59;;;;;;;73.43;34.83;;;3.60;99.90;;;;;;4418568;28;657307;-71
2024/02/01 14:51:46;;;;;;;74.20;34.53;;;3.60;99.90;;;;;;4434903;28;658046;-71
2024/02/01 14:54:35;;;;;;;76.60;35.80;;;3.60;99.90;;;;;;4405529;28;658117;-71